createdAt,value
2022-08-05T00:00:23.150Z,20.13
2022-08-05T00:01:28.438Z,20.15
2022-08-05T00:02:23.224Z,20.13
2022-08-05T00:03:23.101Z,20.15
2022-08-05T00:04:23.120Z,20.16
2022-08-05T00:06:03.005Z,20.15
2022-08-05T00:06:32.161Z,20.18
2022-08-05T00:07:59.799Z,20.15
2022-08-05T00:08:34.374Z,20.15
2022-08-05T00:09:23.061Z,20.12
2022-08-05T00:10:27.082Z,20.08
2022-08-05T00:11:28.092Z,20.03
2022-08-05T00:12:23.021Z,20.00
2022-08-05T00:13:39.124Z,19.97
2022-08-05T00:14:29.154Z,19.98
2022-08-05T00:15:55.350Z,19.98
2022-08-05T00:16:35.365Z,20.00
2022-08-05T00:17:22.975Z,20.03
2022-08-05T00:18:22.968Z,20.02
2022-08-05T00:19:23.433Z,19.95
2022-08-05T00:20:53.022Z,19.88
2022-08-05T00:21:22.937Z,19.86
2022-08-05T00:22:22.903Z,19.86
2022-08-05T00:23:44.385Z,19.88
2022-08-05T00:24:24.570Z,19.91
2022-08-05T00:25:22.892Z,19.93
2022-08-05T00:26:22.857Z,19.94
2022-08-05T00:27:36.241Z,19.93
2022-08-05T00:28:29.589Z,19.94
2022-08-05T00:29:25.564Z,19.94
2022-08-05T00:30:29.068Z,19.94
2022-08-05T00:31:41.427Z,19.91
2022-08-05T00:32:22.814Z,19.87
2022-08-05T00:34:54.889Z,19.80
2022-08-05T00:35:11.032Z,19.75
2022-08-05T00:35:22.783Z,19.70
2022-08-05T00:37:09.839Z,19.68
2022-08-05T00:37:22.810Z,19.68
2022-08-05T00:38:28.959Z,19.69
2022-08-05T00:39:22.815Z,19.68
2022-08-05T00:40:28.409Z,19.66
2022-08-05T00:41:22.715Z,19.63
2022-08-05T00:42:31.774Z,19.60
2022-08-05T00:43:22.702Z,19.55
2022-08-05T00:44:23.298Z,19.53
2022-08-05T00:45:25.019Z,19.48
2022-08-05T00:46:42.581Z,19.48
2022-08-05T00:47:22.777Z,19.50
2022-08-05T00:48:31.194Z,19.50
2022-08-05T00:49:22.625Z,19.47
2022-08-05T00:50:25.270Z,19.43
2022-08-05T00:51:50.411Z,19.42
2022-08-05T00:52:28.787Z,19.40
2022-08-05T00:54:00.765Z,19.36
2022-08-05T00:54:22.562Z,19.33
2022-08-05T00:55:22.559Z,19.29
2022-08-05T00:56:22.721Z,19.25
2022-08-05T00:57:22.941Z,19.23
2022-08-05T00:58:27.323Z,19.21
2022-08-05T00:59:22.546Z,19.20
2022-08-05T01:00:22.526Z,19.24
2022-08-05T01:01:24.897Z,19.24
2022-08-05T01:02:24.400Z,19.23
2022-08-05T01:03:23.435Z,19.23
2022-08-05T01:04:26.931Z,19.21
2022-08-05T01:05:22.463Z,19.20
2022-08-05T01:06:22.433Z,19.18
2022-08-05T01:07:22.459Z,19.15
2022-08-05T01:08:40.697Z,19.15
2022-08-05T01:09:22.694Z,19.18
2022-08-05T01:10:25.801Z,19.21
2022-08-05T01:11:24.153Z,19.20
2022-08-05T01:12:22.372Z,19.17
2022-08-05T01:13:27.468Z,19.15
2022-08-05T01:14:28.323Z,19.14
2022-08-05T01:15:36.424Z,19.15
2022-08-05T01:16:26.156Z,19.14
2022-08-05T01:17:22.678Z,19.11
2022-08-05T01:18:22.319Z,19.10
2022-08-05T01:19:46.255Z,19.10
2022-08-05T01:20:22.476Z,19.10
2022-08-05T01:21:23.069Z,19.14
2022-08-05T01:22:24.083Z,19.15
2022-08-05T01:23:22.828Z,19.20
2022-08-05T01:24:22.246Z,19.23
2022-08-05T01:25:22.248Z,19.21
2022-08-05T01:26:26.372Z,19.18
2022-08-05T01:27:22.344Z,19.13
2022-08-05T01:28:22.224Z,19.08
2022-08-05T01:29:22.940Z,19.01
2022-08-05T01:30:33.712Z,18.99
2022-08-05T01:31:22.197Z,18.98
2022-08-05T01:32:22.179Z,18.97
2022-08-05T01:33:22.193Z,18.95
2022-08-05T01:34:22.144Z,18.94
2022-08-05T01:35:50.241Z,18.92
2022-08-05T01:36:28.164Z,18.91
2022-08-05T01:37:24.982Z,18.87
2022-08-05T01:38:26.820Z,18.87
2022-08-05T01:39:46.572Z,18.86
2022-08-05T01:40:22.092Z,18.84
2022-08-05T01:41:22.144Z,18.80
2022-08-05T01:42:22.156Z,18.83
2022-08-05T01:43:24.161Z,18.83
2022-08-05T01:44:22.084Z,18.84
2022-08-05T01:45:22.055Z,18.87
2022-08-05T01:46:42.810Z,18.86
2022-08-05T01:47:22.329Z,18.86
2022-08-05T01:48:22.023Z,18.82
2022-08-05T01:49:23.878Z,18.82
2022-08-05T01:50:28.675Z,18.84
2022-08-05T01:51:21.994Z,18.91
2022-08-05T01:52:22.185Z,18.92
2022-08-05T01:53:54.971Z,18.97
2022-08-05T01:54:25.586Z,18.97
2022-08-05T01:55:21.982Z,18.95
2022-08-05T01:58:11.867Z,18.94
2022-08-05T01:58:40.379Z,18.95
2022-08-05T01:58:50.261Z,18.97
2022-08-05T01:59:29.226Z,18.98
2022-08-05T02:00:30.045Z,18.98
2022-08-05T02:01:29.291Z,18.97
2022-08-05T02:02:29.235Z,18.99
2022-08-05T02:03:31.925Z,18.98
2022-08-05T02:04:30.098Z,18.99
2022-08-05T02:05:29.201Z,19.02
2022-08-05T02:06:37.931Z,19.06
2022-08-05T02:07:30.218Z,19.10
2022-08-05T02:08:31.178Z,19.13
2022-08-05T02:09:29.139Z,19.13
2022-08-05T02:10:29.136Z,19.14
2022-08-05T02:11:33.067Z,19.20
2022-08-05T02:12:29.095Z,19.21
2022-08-05T02:13:48.792Z,19.23
2022-08-05T02:14:29.071Z,19.21
2022-08-05T02:15:33.170Z,19.21
2022-08-05T02:16:29.072Z,19.18
2022-08-05T02:18:15.178Z,19.18
2022-08-05T02:18:35.460Z,19.17
2022-08-05T02:19:34.153Z,19.17
2022-08-05T02:20:29.008Z,19.14
2022-08-05T02:21:29.037Z,19.13
2022-08-05T02:22:28.995Z,19.13
2022-08-05T02:23:28.990Z,19.11
2022-08-05T02:24:28.983Z,19.10
2022-08-05T02:25:33.019Z,19.06
2022-08-05T02:26:28.973Z,19.01
2022-08-05T02:27:30.151Z,18.99
2022-08-05T02:28:32.961Z,18.97
2022-08-05T02:29:58.973Z,18.95
2022-08-05T02:30:28.918Z,18.95
2022-08-05T02:31:28.951Z,18.94
2022-08-05T02:32:30.595Z,18.95
2022-08-05T02:33:38.316Z,18.94
2022-08-05T02:34:28.873Z,18.95
2022-08-05T02:35:33.262Z,18.92
2022-08-05T02:36:31.599Z,18.92
2022-08-05T02:37:28.866Z,18.92
2022-08-05T02:38:28.818Z,18.98
2022-08-05T02:39:28.872Z,19.05
2022-08-05T02:40:28.806Z,19.10
2022-08-05T02:41:43.362Z,19.13
2022-08-05T02:42:34.288Z,19.13
2022-08-05T02:43:28.796Z,19.13
2022-08-05T02:44:28.760Z,19.14
2022-08-05T02:45:28.761Z,19.14
2022-08-05T02:46:28.781Z,19.14
2022-08-05T02:47:58.680Z,19.13
2022-08-05T02:48:29.312Z,19.14
2022-08-05T02:49:36.998Z,19.11
2022-08-05T02:50:28.717Z,19.13
2022-08-05T02:52:03.853Z,19.13
2022-08-05T02:52:30.262Z,19.15
2022-08-05T02:53:28.676Z,19.14
2022-08-05T02:54:34.876Z,19.15
2022-08-05T02:55:53.832Z,19.15
2022-08-05T02:56:28.658Z,19.17
2022-08-05T02:58:11.080Z,19.17
2022-08-05T02:58:28.893Z,19.18
2022-08-05T02:59:28.623Z,19.17
2022-08-05T03:00:28.595Z,19.17
2022-08-05T03:01:28.668Z,19.21
2022-08-05T03:02:28.570Z,19.20
2022-08-05T03:03:28.579Z,19.17
2022-08-05T03:04:28.555Z,19.14
2022-08-05T03:06:57.161Z,19.14
2022-08-05T03:07:03.752Z,19.11
2022-08-05T03:07:59.285Z,19.10
2022-08-05T03:08:29.815Z,19.11
2022-08-05T03:09:37.384Z,19.11
2022-08-05T03:10:28.500Z,19.13
2022-08-05T03:11:56.393Z,19.15
2022-08-05T03:12:28.477Z,19.15
2022-08-05T03:13:28.480Z,19.14
2022-08-05T03:14:28.468Z,19.15
2022-08-05T03:15:28.451Z,19.13
2022-08-05T03:16:28.451Z,19.11
2022-08-05T03:17:28.420Z,19.11
2022-08-05T03:18:29.966Z,19.13
2022-08-05T03:19:34.424Z,19.17
2022-08-05T03:20:28.405Z,19.21
2022-08-05T03:21:28.869Z,19.25
2022-08-05T03:22:32.272Z,19.25
2022-08-05T03:23:28.354Z,19.25
2022-08-05T03:24:30.438Z,19.24
2022-08-05T03:26:02.671Z,19.17
2022-08-05T03:26:32.472Z,19.15
2022-08-05T03:27:39.200Z,19.13
2022-08-05T03:28:28.317Z,19.11
2022-08-05T03:29:45.186Z,19.06
2022-08-05T03:30:33.547Z,18.98
2022-08-05T03:31:57.020Z,18.97
2022-08-05T03:32:30.929Z,18.95
2022-08-05T03:33:42.231Z,18.95
2022-08-05T03:34:28.252Z,18.92
2022-08-05T03:35:28.225Z,18.92
2022-08-05T03:36:30.587Z,18.90
2022-08-05T03:37:28.222Z,18.91
2022-08-05T03:38:33.340Z,18.87
2022-08-05T03:39:28.268Z,18.86
2022-08-05T03:40:32.160Z,18.83
2022-08-05T03:41:33.012Z,18.83
2022-08-05T03:42:29.165Z,18.84
2022-08-05T03:44:08.633Z,18.87
2022-08-05T03:44:29.028Z,18.87
2022-08-05T03:45:28.140Z,18.90
2022-08-05T03:46:29.730Z,18.92
2022-08-05T03:47:30.473Z,18.94
2022-08-05T03:48:28.195Z,18.94
2022-08-05T03:49:31.205Z,18.95
2022-08-05T03:50:28.331Z,18.97
2022-08-05T03:52:38.329Z,18.95
2022-08-05T03:56:09.414Z,18.95
2022-08-05T03:56:30.508Z,19.20
2022-08-05T03:56:50.011Z,19.32
2022-08-05T03:57:48.810Z,19.43
2022-08-05T03:58:48.363Z,19.58
2022-08-05T03:59:54.988Z,19.69
2022-08-05T04:00:51.418Z,19.72
2022-08-05T04:01:48.494Z,19.72
2022-08-05T04:02:58.738Z,19.68
2022-08-05T04:04:05.383Z,19.61
2022-08-05T04:04:48.311Z,19.57
2022-08-05T04:05:48.280Z,19.55
2022-08-05T04:06:51.303Z,19.53
2022-08-05T04:07:57.247Z,19.50
2022-08-05T04:08:48.593Z,19.50
2022-08-05T04:09:53.060Z,19.48
2022-08-05T04:10:48.261Z,19.42
2022-08-05T04:11:52.477Z,19.35
2022-08-05T04:12:48.225Z,19.28
2022-08-05T04:13:51.389Z,19.25
2022-08-05T04:14:48.203Z,19.21
2022-08-05T04:16:02.802Z,19.17
2022-08-05T04:16:48.227Z,19.17
2022-08-05T04:17:57.351Z,19.15
2022-08-05T04:18:48.169Z,19.15
2022-08-05T04:19:54.479Z,19.13
2022-08-05T04:20:48.131Z,19.10
2022-08-05T04:22:10.216Z,19.02
2022-08-05T04:22:48.118Z,18.99
2022-08-05T04:24:00.208Z,18.98
2022-08-05T04:24:52.589Z,18.94
2022-08-05T04:26:00.652Z,18.95
2022-08-05T04:26:48.092Z,18.92
2022-08-05T04:27:57.280Z,18.90
2022-08-05T04:28:51.953Z,18.87
2022-08-05T04:29:48.450Z,18.82
2022-08-05T04:30:48.165Z,18.77
2022-08-05T04:31:48.521Z,18.74
2022-08-05T04:32:48.019Z,18.67
2022-08-05T04:34:17.066Z,18.62
2022-08-05T04:34:48.019Z,18.59
2022-08-05T04:36:15.760Z,18.62
2022-08-05T04:36:50.141Z,18.65
2022-08-05T04:38:01.503Z,18.62
2022-08-05T04:38:51.121Z,18.64
2022-08-05T04:39:52.773Z,18.62
2022-08-05T04:40:50.851Z,18.62
2022-08-05T04:41:48.163Z,18.59
2022-08-05T04:42:47.908Z,18.59
2022-08-05T04:43:51.979Z,18.62
2022-08-05T04:44:47.905Z,18.65
2022-08-05T04:45:55.096Z,18.68
2022-08-05T04:46:48.442Z,18.65
2022-08-05T04:47:47.841Z,18.64
2022-08-05T04:48:47.855Z,18.61
2022-08-05T04:50:02.759Z,18.58
2022-08-05T04:51:03.839Z,18.57
2022-08-05T04:51:47.826Z,18.57
2022-08-05T04:52:47.828Z,18.57
2022-08-05T04:53:47.780Z,18.58
2022-08-05T04:54:49.364Z,18.61
2022-08-05T04:56:32.275Z,18.64
2022-08-05T04:56:47.800Z,18.68
2022-08-05T04:57:54.065Z,18.72
2022-08-05T04:58:47.758Z,18.73
2022-08-05T04:59:48.155Z,18.76
2022-08-05T05:00:50.794Z,18.73
2022-08-05T05:02:07.373Z,18.72
2022-08-05T05:02:47.786Z,18.72
2022-08-05T05:03:47.695Z,18.70
2022-08-05T05:04:49.868Z,18.68
2022-08-05T05:06:39.234Z,18.68
2022-08-05T05:06:52.015Z,18.72
2022-08-05T05:07:52.979Z,18.80
2022-08-05T05:08:50.121Z,18.83
2022-08-05T05:09:47.628Z,18.86
2022-08-05T05:10:56.121Z,18.87
2022-08-05T05:11:55.487Z,18.91
2022-08-05T05:12:47.623Z,18.92
2022-08-05T05:13:47.578Z,18.92
2022-08-05T05:14:50.541Z,18.91
2022-08-05T05:15:57.395Z,18.92
2022-08-05T05:16:47.580Z,18.94
2022-08-05T05:17:56.974Z,18.98
2022-08-05T05:19:08.835Z,19.02
2022-08-05T05:19:47.531Z,19.08
2022-08-05T05:20:47.526Z,19.11
2022-08-05T05:21:47.532Z,19.15
2022-08-05T05:22:47.503Z,19.15
2022-08-05T05:24:03.829Z,19.20
2022-08-05T05:24:57.899Z,19.23
2022-08-05T05:25:47.760Z,19.24
2022-08-05T05:26:50.050Z,19.23
2022-08-05T05:27:53.677Z,19.28
2022-08-05T05:28:47.452Z,19.28
2022-08-05T05:30:04.369Z,19.25
2022-08-05T05:30:49.602Z,19.28
2022-08-05T05:31:47.434Z,19.28
2022-08-05T05:32:47.402Z,19.31
2022-08-05T05:33:59.543Z,19.32
2022-08-05T05:34:47.381Z,19.33
2022-08-05T05:35:47.916Z,19.33
2022-08-05T05:36:47.364Z,19.33
2022-08-05T05:37:59.772Z,19.33
2022-08-05T05:38:47.347Z,19.38
2022-08-05T05:39:47.408Z,19.39
2022-08-05T05:40:51.321Z,19.46
2022-08-05T05:41:54.137Z,19.51
2022-08-05T05:42:47.289Z,19.51
2022-08-05T05:43:58.627Z,19.53
2022-08-05T05:44:47.286Z,19.50
2022-08-05T05:45:48.163Z,19.53
2022-08-05T05:46:47.747Z,19.55
2022-08-05T05:48:05.438Z,19.55
2022-08-05T05:48:48.220Z,19.54
2022-08-05T05:49:47.210Z,19.53
2022-08-05T05:50:47.234Z,19.55
2022-08-05T05:51:50.396Z,19.57
2022-08-05T05:52:47.214Z,19.58
2022-08-05T05:53:57.161Z,19.60
2022-08-05T05:54:50.255Z,19.58
2022-08-05T05:55:52.236Z,19.58
2022-08-05T05:56:47.349Z,19.55
2022-08-05T05:57:52.188Z,19.47
2022-08-05T05:58:47.149Z,19.42
2022-08-05T05:59:47.122Z,19.39
2022-08-05T06:00:47.120Z,19.38
2022-08-05T06:01:57.150Z,19.39
2022-08-05T06:02:47.105Z,19.38
2022-08-05T06:04:00.755Z,19.36
2022-08-05T06:04:49.131Z,19.32
2022-08-05T06:05:54.176Z,19.35
2022-08-05T06:06:48.735Z,19.36
2022-08-05T06:07:57.947Z,19.35
2022-08-05T06:08:49.194Z,19.39
2022-08-05T06:09:59.894Z,19.36
2022-08-05T06:10:52.358Z,19.36
2022-08-05T06:11:59.184Z,19.36
2022-08-05T06:12:46.998Z,19.35
2022-08-05T06:13:53.646Z,19.35
2022-08-05T06:14:46.993Z,19.35
2022-08-05T06:16:29.108Z,19.33
2022-08-05T06:16:46.958Z,19.35
2022-08-05T06:17:52.821Z,19.33
2022-08-05T06:18:46.925Z,19.32
2022-08-05T06:19:56.937Z,19.32
2022-08-05T06:20:47.776Z,19.31
2022-08-05T06:21:49.690Z,19.31
2022-08-05T06:22:46.911Z,19.31
2022-08-05T06:23:46.897Z,19.35
2022-08-05T06:24:46.873Z,19.33
2022-08-05T06:26:13.405Z,19.36
2022-08-05T06:26:51.302Z,19.40
2022-08-05T06:28:12.749Z,19.42
2022-08-05T06:28:46.824Z,19.46
2022-08-05T06:30:05.950Z,19.47
2022-08-05T06:30:46.811Z,19.50
2022-08-05T06:31:46.790Z,19.48
2022-08-05T06:32:46.899Z,19.51
2022-08-05T06:34:05.994Z,19.51
2022-08-05T06:34:47.026Z,19.55
2022-08-05T06:36:03.497Z,19.55
2022-08-05T06:36:57.399Z,19.57
2022-08-05T06:37:57.450Z,19.66
2022-08-05T06:38:47.229Z,19.79
2022-08-05T06:39:46.738Z,19.97
2022-08-05T06:40:46.720Z,20.23
2022-08-05T06:41:46.679Z,20.46
2022-08-05T06:42:46.688Z,20.62
2022-08-05T06:43:58.297Z,20.84
2022-08-05T06:48:58.746Z,21.04
2022-08-05T06:49:07.524Z,21.30
2022-08-05T06:50:05.288Z,21.36
2022-08-05T06:51:09.940Z,21.42
2022-08-05T06:52:04.195Z,21.46
2022-08-05T06:53:19.588Z,21.53
2022-08-05T06:54:04.152Z,21.60
2022-08-05T06:55:04.102Z,21.63
2022-08-05T06:56:04.131Z,21.67
2022-08-05T06:57:56.663Z,21.74
2022-08-05T06:58:30.004Z,21.76
2022-08-05T06:59:08.484Z,21.81
2022-08-05T07:00:04.067Z,21.82
2022-08-05T07:01:04.160Z,21.83
2022-08-05T07:02:04.043Z,21.83
2022-08-05T07:03:04.032Z,21.90
2022-08-05T07:04:04.073Z,21.90
2022-08-05T07:05:04.005Z,21.88
2022-08-05T07:06:06.126Z,21.91
2022-08-05T07:07:07.856Z,21.94
2022-08-05T07:08:03.987Z,21.97
2022-08-05T07:09:04.636Z,22.04
2022-08-05T07:10:03.970Z,22.12
2022-08-05T07:11:03.945Z,22.13
2022-08-05T07:12:03.970Z,22.16
2022-08-05T07:13:05.589Z,22.19
2022-08-05T07:14:04.262Z,22.23
2022-08-05T07:15:03.888Z,22.25
2022-08-05T07:16:04.779Z,22.27
2022-08-05T07:18:01.317Z,22.27
2022-08-05T07:18:20.407Z,22.28
2022-08-05T07:19:03.878Z,22.35
2022-08-05T07:20:32.157Z,22.41
2022-08-05T07:21:05.470Z,22.44
2022-08-05T07:22:03.875Z,22.46
2022-08-05T07:23:04.585Z,22.47
2022-08-05T07:24:03.813Z,22.43
2022-08-05T07:25:54.489Z,22.47
2022-08-05T07:26:03.795Z,22.50
2022-08-05T07:27:03.768Z,22.52
2022-08-05T07:28:08.263Z,22.50
2022-08-05T07:29:03.765Z,22.54
2022-08-05T07:30:25.483Z,22.57
2022-08-05T07:31:03.754Z,22.57
2022-08-05T07:32:03.920Z,22.64
2022-08-05T07:33:05.558Z,22.71
2022-08-05T07:34:03.730Z,22.80
2022-08-05T07:36:02.889Z,22.86
2022-08-05T07:36:20.627Z,22.90
2022-08-05T07:37:03.670Z,22.89
2022-08-05T07:38:03.660Z,22.93
2022-08-05T07:39:05.637Z,22.97
2022-08-05T07:40:31.617Z,23.04
2022-08-05T07:42:07.355Z,23.09
2022-08-05T07:42:16.248Z,23.14
2022-08-05T07:43:13.817Z,23.19
2022-08-05T07:44:03.874Z,23.22
2022-08-05T07:45:03.600Z,23.29
2022-08-05T07:46:03.603Z,23.34
2022-08-05T07:47:06.213Z,23.43
2022-08-05T07:48:03.582Z,23.47
2022-08-05T07:49:06.277Z,23.50
2022-08-05T07:50:06.508Z,23.58
2022-08-05T07:51:03.532Z,23.64
2022-08-05T07:52:03.525Z,23.76
2022-08-05T07:53:03.503Z,23.80
2022-08-05T07:54:03.786Z,23.85
2022-08-05T07:55:04.300Z,23.90
2022-08-05T07:56:06.462Z,23.98
2022-08-05T07:57:50.564Z,24.00
2022-08-05T07:58:04.077Z,24.04
2022-08-05T07:59:03.461Z,24.07
2022-08-05T08:00:03.465Z,24.12
2022-08-05T08:01:06.239Z,24.19
2022-08-05T08:02:03.434Z,24.27
2022-08-05T08:03:14.896Z,24.27
2022-08-05T08:04:03.399Z,24.34
2022-08-05T08:05:03.410Z,24.38
2022-08-05T08:06:03.404Z,24.41
2022-08-05T08:07:05.504Z,24.39
2022-08-05T08:08:03.349Z,24.39
2022-08-05T08:09:03.363Z,24.41
2022-08-05T08:10:03.356Z,24.45
2022-08-05T08:11:03.343Z,24.52
2022-08-05T08:12:10.660Z,24.50
2022-08-05T08:13:03.340Z,24.56
2022-08-05T08:14:03.295Z,24.64
2022-08-05T08:15:04.451Z,24.80
2022-08-05T08:16:35.650Z,24.88
2022-08-05T08:17:03.268Z,25.06
2022-08-05T08:18:06.984Z,25.19
2022-08-05T08:19:03.246Z,25.30
2022-08-05T08:20:21.107Z,25.34
2022-08-05T08:21:04.170Z,25.37
2022-08-05T08:22:03.215Z,25.35
2022-08-05T08:23:03.420Z,25.38
2022-08-05T08:24:05.269Z,25.49
2022-08-05T08:25:03.972Z,25.57
2022-08-05T08:26:04.626Z,25.64
2022-08-05T08:27:03.193Z,25.71
2022-08-05T08:28:03.139Z,25.72
2022-08-05T08:30:03.126Z,25.84
2022-08-05T08:30:27.697Z,25.84
2022-08-05T08:31:04.451Z,25.93
2022-08-05T08:32:03.152Z,26.02
2022-08-05T08:33:08.064Z,26.11
2022-08-05T08:34:03.105Z,26.28
2022-08-05T08:35:03.105Z,26.32
2022-08-05T08:36:29.322Z,26.37
2022-08-05T08:37:04.788Z,26.52
2022-08-05T08:38:03.068Z,26.69
2022-08-05T08:39:03.097Z,26.79
2022-08-05T08:40:03.636Z,26.94
2022-08-05T08:41:03.026Z,27.10
2022-08-05T08:42:04.604Z,27.17
2022-08-05T08:45:16.332Z,27.38
2022-08-05T08:45:29.618Z,27.57
2022-08-05T08:45:34.745Z,27.85
2022-08-05T08:46:34.748Z,27.92
2022-08-05T08:48:06.656Z,28.14
2022-08-05T08:49:03.365Z,28.14
2022-08-05T08:50:23.482Z,28.16
2022-08-05T08:51:22.612Z,28.16
2022-08-05T08:52:13.597Z,28.50
2022-08-05T08:52:34.702Z,28.75
2022-08-05T08:53:34.681Z,29.03
2022-08-05T08:54:36.298Z,29.03
2022-08-05T08:56:04.605Z,29.25
2022-08-05T08:56:34.657Z,29.50
2022-08-05T08:57:48.324Z,29.82
2022-08-05T08:58:43.098Z,30.11
2022-08-05T08:59:34.644Z,30.47
2022-08-05T09:00:34.636Z,30.84
2022-08-05T09:01:34.679Z,30.54
2022-08-05T09:02:34.606Z,30.71
2022-08-05T09:03:40.412Z,30.78
2022-08-05T09:04:34.572Z,30.18
2022-08-05T09:05:38.752Z,29.72
2022-08-05T09:06:36.191Z,29.65
2022-08-05T09:07:39.878Z,29.65
2022-08-05T09:08:34.529Z,29.68
2022-08-05T09:09:35.429Z,29.78
2022-08-05T09:10:34.516Z,29.34
2022-08-05T09:11:51.176Z,29.00
2022-08-05T09:12:35.001Z,28.72
2022-08-05T09:14:01.160Z,28.41
2022-08-05T09:15:04.779Z,28.40
2022-08-05T09:15:36.959Z,28.77
2022-08-05T09:16:34.479Z,29.38
2022-08-05T09:17:40.501Z,29.29
2022-08-05T09:18:34.459Z,28.88
2022-08-05T09:19:36.602Z,28.53
2022-08-05T09:20:37.635Z,28.31
2022-08-05T09:22:23.041Z,28.16
2022-08-05T09:22:36.487Z,28.03
2022-08-05T09:23:43.333Z,27.95
2022-08-05T09:24:34.387Z,27.85
2022-08-05T09:26:00.353Z,27.66
2022-08-05T09:26:34.359Z,27.58
2022-08-05T09:28:05.219Z,27.41
2022-08-05T09:28:34.864Z,27.29
2022-08-05T09:29:34.349Z,27.16
2022-08-05T09:30:34.402Z,26.92
2022-08-05T09:32:51.325Z,26.83
2022-08-05T09:32:56.758Z,26.77
2022-08-05T09:33:35.213Z,27.13
2022-08-05T09:34:34.317Z,27.66
2022-08-05T09:35:34.291Z,28.17
2022-08-05T09:36:34.268Z,28.47
2022-08-05T09:38:17.324Z,28.50
2022-08-05T09:38:34.266Z,28.36
2022-08-05T09:39:45.234Z,28.48
2022-08-05T09:40:34.234Z,28.68
2022-08-05T09:41:39.100Z,29.15
2022-08-05T09:42:34.852Z,29.11
2022-08-05T09:43:41.024Z,28.70
2022-08-05T09:44:34.195Z,28.29
2022-08-05T09:46:06.908Z,28.13
2022-08-05T09:46:35.084Z,28.04
2022-08-05T09:47:36.532Z,27.85
2022-08-05T09:48:34.141Z,27.70
2022-08-05T09:49:54.853Z,27.51
2022-08-05T09:50:38.913Z,27.31
2022-08-05T09:51:34.140Z,27.14
2022-08-05T09:52:35.341Z,26.99
2022-08-05T09:53:53.903Z,26.92
2022-08-05T09:54:34.092Z,27.28
2022-08-05T09:55:57.459Z,28.53
2022-08-05T09:56:34.082Z,29.75
2022-08-05T09:57:35.363Z,30.72
2022-08-05T09:58:34.076Z,31.33
2022-08-05T09:59:35.091Z,31.36
2022-08-05T10:00:34.028Z,31.31
2022-08-05T10:01:34.027Z,30.81
2022-08-05T10:02:34.073Z,31.36
2022-08-05T10:03:51.822Z,32.44
2022-08-05T10:04:33.997Z,33.10
2022-08-05T10:05:33.999Z,33.13
2022-08-05T10:06:33.972Z,33.52
2022-08-05T10:08:10.567Z,33.83
2022-08-05T10:08:42.443Z,34.29
2022-08-05T10:09:45.436Z,34.64
2022-08-05T10:10:33.973Z,34.79
2022-08-05T10:11:35.191Z,34.95
2022-08-05T10:12:34.165Z,34.77
2022-08-05T10:13:46.303Z,33.89
2022-08-05T10:14:33.911Z,33.30
2022-08-05T10:15:34.096Z,32.37
2022-08-05T10:16:37.618Z,31.62
2022-08-05T10:17:38.064Z,31.18
2022-08-05T10:18:33.916Z,30.76
2022-08-05T10:20:04.288Z,30.49
2022-08-05T10:20:33.853Z,30.30
2022-08-05T10:21:35.190Z,30.23
2022-08-05T10:22:37.684Z,30.15
2022-08-05T10:23:55.233Z,30.08
2022-08-05T10:24:33.812Z,30.05
2022-08-05T10:25:33.814Z,29.94
2022-08-05T10:26:33.866Z,29.81
2022-08-05T10:28:13.681Z,29.56
2022-08-05T10:28:33.850Z,29.41
2022-08-05T10:30:06.967Z,29.26
2022-08-05T10:32:54.349Z,29.16
2022-08-05T10:33:04.943Z,29.04
2022-08-05T10:33:14.707Z,28.68
2022-08-05T10:34:14.037Z,28.50
2022-08-05T10:35:14.005Z,28.41
2022-08-05T10:36:14.006Z,28.35
2022-08-05T10:37:13.980Z,28.32
2022-08-05T10:38:13.994Z,28.44
2022-08-05T10:39:24.602Z,28.44
2022-08-05T10:40:17.410Z,28.46
2022-08-05T10:41:14.140Z,28.50
2022-08-05T10:42:13.952Z,28.59
2022-08-05T10:43:13.947Z,28.73
2022-08-05T10:44:13.920Z,28.85
2022-08-05T10:45:23.347Z,28.95
2022-08-05T10:46:13.917Z,29.00
2022-08-05T10:47:26.817Z,29.08
2022-08-05T10:48:31.460Z,29.20
2022-08-05T10:49:16.322Z,29.19
2022-08-05T10:50:32.419Z,29.16
2022-08-05T10:51:22.340Z,29.15
2022-08-05T10:52:13.840Z,29.08
2022-08-05T10:53:13.831Z,29.04
2022-08-05T10:54:28.606Z,29.07
2022-08-05T10:55:15.949Z,29.13
2022-08-05T10:56:21.046Z,29.11
2022-08-05T10:57:13.780Z,29.15
2022-08-05T10:58:15.638Z,29.16
2022-08-05T11:00:03.390Z,29.15
2022-08-05T11:00:19.112Z,29.15
2022-08-05T11:01:13.749Z,29.20
2022-08-05T11:02:14.721Z,29.26
2022-08-05T11:03:25.201Z,29.33
2022-08-05T11:04:13.766Z,29.37
2022-08-05T11:05:13.697Z,29.38
2022-08-05T11:06:15.651Z,29.41
2022-08-05T11:07:13.698Z,29.33
2022-08-05T11:08:36.613Z,29.18
2022-08-05T11:09:16.807Z,29.10
2022-08-05T11:10:13.668Z,29.10
2022-08-05T11:11:16.741Z,29.11
2022-08-05T11:12:13.661Z,29.19
2022-08-05T11:13:13.636Z,29.23
2022-08-05T11:14:13.641Z,29.28
2022-08-05T11:15:20.464Z,29.29
2022-08-05T11:16:13.607Z,29.34
2022-08-05T11:17:59.072Z,29.37
2022-08-05T11:18:14.578Z,29.37
2022-08-05T11:20:16.960Z,29.41
2022-08-05T11:20:23.170Z,29.41
2022-08-05T11:21:13.541Z,29.43
2022-08-05T11:22:13.553Z,29.45
2022-08-05T11:23:13.517Z,29.52
2022-08-05T11:24:29.985Z,29.59
2022-08-05T11:26:03.238Z,29.63
2022-08-05T11:26:13.516Z,29.63
2022-08-05T11:27:13.493Z,29.68
2022-08-05T11:28:17.164Z,29.81
2022-08-05T11:29:14.299Z,29.90
2022-08-05T11:30:13.476Z,29.99
2022-08-05T11:31:54.101Z,29.97
2022-08-05T11:32:13.452Z,29.89
2022-08-05T11:33:20.930Z,29.86
2022-08-05T11:34:14.800Z,29.84
2022-08-05T11:35:15.419Z,29.82
2022-08-05T11:36:13.395Z,29.79
2022-08-05T11:38:30.793Z,29.78
2022-08-05T11:38:45.997Z,29.81
2022-08-05T11:39:13.592Z,29.87
2022-08-05T11:40:13.379Z,29.86
2022-08-05T11:41:58.004Z,29.84
2022-08-05T11:42:18.336Z,29.82
2022-08-05T11:43:13.332Z,29.86
2022-08-05T11:44:40.123Z,29.89
2022-08-05T11:45:27.012Z,29.82
2022-08-05T11:46:32.527Z,29.84
2022-08-05T11:47:18.550Z,29.77
2022-08-05T11:48:13.289Z,29.71
2022-08-05T11:49:13.280Z,29.59
2022-08-05T11:50:14.140Z,29.56
2022-08-05T11:51:13.250Z,29.56
2022-08-05T11:52:13.250Z,29.53
2022-08-05T11:53:13.232Z,29.55
2022-08-05T11:54:13.895Z,29.52
2022-08-05T11:55:13.212Z,29.47
2022-08-05T11:56:13.224Z,29.50
2022-08-05T11:57:25.977Z,29.55
2022-08-05T11:58:13.191Z,29.57
2022-08-05T11:59:13.706Z,29.62
2022-08-05T12:00:13.165Z,29.63
2022-08-05T12:01:13.163Z,29.60
2022-08-05T12:02:30.319Z,29.65
2022-08-05T12:03:13.212Z,29.71
2022-08-05T12:04:13.635Z,29.75
2022-08-05T12:05:18.152Z,29.82
2022-08-05T12:06:13.134Z,29.94
2022-08-05T12:07:18.416Z,30.03
2022-08-05T12:08:18.446Z,30.12
2022-08-05T12:09:19.990Z,30.18
2022-08-05T12:10:13.168Z,30.19
2022-08-05T12:11:17.270Z,30.15
2022-08-05T12:12:13.076Z,30.12
2022-08-05T12:13:15.865Z,30.11
2022-08-05T12:14:13.023Z,30.14
2022-08-05T12:15:16.717Z,30.11
2022-08-05T12:16:14.607Z,30.08
2022-08-05T12:18:03.201Z,30.07
2022-08-05T12:18:13.252Z,30.05
2022-08-05T12:20:25.692Z,30.02
2022-08-05T12:20:33.722Z,30.02
2022-08-05T12:21:15.236Z,30.05
2022-08-05T12:22:12.946Z,30.08
2022-08-05T12:23:12.944Z,30.05
2022-08-05T12:24:12.911Z,30.05
2022-08-05T12:25:14.422Z,30.00
2022-08-05T12:26:12.899Z,29.90
2022-08-05T12:27:21.553Z,29.79
2022-08-05T12:28:12.877Z,29.79
2022-08-05T12:29:16.437Z,29.82
2022-08-05T12:30:15.571Z,29.86
2022-08-05T12:31:12.869Z,29.93
2022-08-05T12:32:12.847Z,29.97
2022-08-05T12:33:27.443Z,30.00
2022-08-05T12:34:14.582Z,30.08
2022-08-05T12:35:12.822Z,30.09
2022-08-05T12:36:12.858Z,30.03
2022-08-05T12:37:17.026Z,30.00
2022-08-05T12:38:12.777Z,30.03
2022-08-05T12:39:12.815Z,30.03
2022-08-05T12:40:26.382Z,30.07
2022-08-05T12:41:13.261Z,30.11
2022-08-05T12:42:14.705Z,30.16
2022-08-05T12:43:12.727Z,30.21
2022-08-05T12:44:14.388Z,30.29
2022-08-05T12:45:12.733Z,30.34
2022-08-05T12:46:12.690Z,30.40
2022-08-05T12:47:12.902Z,30.45
2022-08-05T12:48:26.850Z,30.45
2022-08-05T12:49:13.720Z,30.45
2022-08-05T12:50:12.658Z,30.40
2022-08-05T12:52:10.339Z,30.37
2022-08-05T12:52:25.390Z,30.33
2022-08-05T12:53:12.660Z,30.30
2022-08-05T12:54:14.837Z,30.27
2022-08-05T12:55:12.612Z,30.26
2022-08-05T12:56:34.549Z,30.26
2022-08-05T12:57:12.810Z,30.23
2022-08-05T12:58:48.495Z,30.21
2022-08-05T12:59:13.902Z,30.19